sensor_id;sensor_type;location;lat;lon;timestamp;pressure;altitude;pressure_sealevel;temperature;humidity
7407;BME280;3745;56.964;24.128;2023-02-11T00:01:39;101287.44;;;1.57;100.00
7407;BME280;3745;56.964;24.128;2023-02-11T00:04:05;101251.81;;;1.45;100.00
7407;BME280;3745;56.964;24.128;2023-02-11T00:06:32;101270.78;;;1.56;100.00
7407;BME280;3745;56.964;24.128;2023-02-11T00:08:58;101267.47;;;1.57;100.00
7407;BME280;3745;56.964;24.128;2023-02-11T00:11:24;101243.59;;;1.46;100.00
7407;BME280;3745;56.964;24.128;2023-02-11T00:13:55;101253.72;;;1.49;100.00
7407;BME280;3745;56.964;24.128;2023-02-11T00:16:21;101193.88;;;1.20;100.00
7407;BME280;3745;56.964;24.128;2023-02-11T00:18:47;101185.28;;;1.15;100.00
7407;BME280;3745;56.964;24.128;2023-02-11T00:21:17;101208.00;;;1.34;100.00
7407;BME280;3745;56.964;24.128;2023-02-11T00:23:43;101215.41;;;1.47;100.00
7407;BME280;3745;56.964;24.128;2023-02-11T00:26:14;101196.97;;;1.45;100.00
7407;BME280;3745;56.964;24.128;2023-02-11T00:28:42;101202.66;;;1.43;100.00
7407;BME280;3745;56.964;24.128;2023-02-11T00:31:11;101188.72;;;1.46;100.00
7407;BME280;3745;56.964;24.128;2023-02-11T00:33:37;101122.38;;;1.19;100.00
7407;BME280;3745;56.964;24.128;2023-02-11T00:36:09;101165.69;;;1.50;100.00
7407;BME280;3745;56.964;24.128;2023-02-11T00:38:36;101132.16;;;1.45;100.00
7407;BME280;3745;56.964;24.128;2023-02-11T00:41:01;101132.31;;;1.48;100.00
7407;BME280;3745;56.964;24.128;2023-02-11T00:43:27;101104.72;;;1.45;100.00
7407;BME280;3745;56.964;24.128;2023-02-11T00:45:52;101128.69;;;1.58;100.00
7407;BME280;3745;56.964;24.128;2023-02-11T00:48:18;101110.53;;;1.60;100.00
7407;BME280;3745;56.964;24.128;2023-02-11T00:50:44;101103.06;;;1.60;100.00
7407;BME280;3745;56.964;24.128;2023-02-11T00:53:09;101039.34;;;1.20;100.00
7407;BME280;3745;56.964;24.128;2023-02-11T00:55:35;101082.75;;;1.69;100.00
7407;BME280;3745;56.964;24.128;2023-02-11T00:58:01;101081.72;;;1.66;100.00
7407;BME280;3745;56.964;24.128;2023-02-11T01:00:26;101053.00;;;1.57;100.00
7407;BME280;3745;56.964;24.128;2023-02-11T01:02:52;101002.19;;;1.39;100.00
7407;BME280;3745;56.964;24.128;2023-02-11T01:05:18;101056.94;;;1.69;100.00
7407;BME280;3745;56.964;24.128;2023-02-11T01:07:44;100988.94;;;1.40;100.00
7407;BME280;3745;56.964;24.128;2023-02-11T01:10:10;101006.59;;;1.59;100.00
7407;BME280;3745;56.964;24.128;2023-02-11T01:12:37;100984.44;;;1.49;100.00
7407;BME280;3745;56.964;24.128;2023-02-11T01:15:05;101010.19;;;1.81;100.00
7407;BME280;3745;56.964;24.128;2023-02-11T01:17:32;101000.19;;;1.64;100.00
7407;BME280;3745;56.964;24.128;2023-02-11T01:19:57;101002.16;;;1.86;100.00
7407;BME280;3745;56.964;24.128;2023-02-11T01:22:23;101000.06;;;1.94;100.00
7407;BME280;3745;56.964;24.128;2023-02-11T01:24:48;101011.44;;;2.05;100.00
7407;BME280;3745;56.964;24.128;2023-02-11T01:27:14;100990.41;;;2.00;100.00
7407;BME280;3745;56.964;24.128;2023-02-11T01:29:39;100942.84;;;1.81;100.00
7407;BME280;3745;56.964;24.128;2023-02-11T01:32:05;100916.16;;;1.80;100.00
7407;BME280;3745;56.964;24.128;2023-02-11T01:34:30;100897.94;;;1.81;100.00
7407;BME280;3745;56.964;24.128;2023-02-11T01:36:59;100894.94;;;1.88;100.00
7407;BME280;3745;56.964;24.128;2023-02-11T01:39:26;100911.16;;;1.96;100.00
7407;BME280;3745;56.964;24.128;2023-02-11T01:41:52;100939.66;;;2.17;100.00
7407;BME280;3745;56.964;24.128;2023-02-11T01:44:24;100913.50;;;2.09;100.00
7407;BME280;3745;56.964;24.128;2023-02-11T01:46:50;100924.53;;;2.14;100.00
7407;BME280;3745;56.964;24.128;2023-02-11T01:49:20;100907.97;;;2.16;100.00
7407;BME280;3745;56.964;24.128;2023-02-11T01:51:52;100848.03;;;1.81;100.00
7407;BME280;3745;56.964;24.128;2023-02-11T01:54:22;100834.31;;;1.73;100.00
7407;BME280;3745;56.964;24.128;2023-02-11T01:57:10;100885.47;;;2.14;100.00
7407;BME280;3745;56.964;24.128;2023-02-11T02:02:20;100875.75;;;2.03;100.00
7407;BME280;3745;56.964;24.128;2023-02-11T02:04:56;100870.78;;;2.03;100.00
7407;BME280;3745;56.964;24.128;2023-02-11T02:07:42;100863.34;;;2.04;100.00
7407;BME280;3745;56.964;24.128;2023-02-11T02:10:14;100837.22;;;1.98;100.00
7407;BME280;3745;56.964;24.128;2023-02-11T02:12:42;100837.38;;;2.01;100.00
7407;BME280;3745;56.964;24.128;2023-02-11T02:15:23;100823.06;;;2.14;100.00
7407;BME280;3745;56.964;24.128;2023-02-11T02:32:55;100766.09;;;2.06;100.00
7407;BME280;3745;56.964;24.128;2023-02-11T02:35:28;100756.25;;;2.09;100.00
7407;BME280;3745;56.964;24.128;2023-02-11T02:38:05;100753.09;;;2.13;100.00
7407;BME280;3745;56.964;24.128;2023-02-11T02:40:39;100716.19;;;2.06;100.00
7407;BME280;3745;56.964;24.128;2023-02-11T02:43:07;100727.66;;;2.20;100.00
7407;BME280;3745;56.964;24.128;2023-02-11T02:45:34;100724.28;;;2.19;100.00
7407;BME280;3745;56.964;24.128;2023-02-11T02:47:59;100704.59;;;2.26;100.00
7407;BME280;3745;56.964;24.128;2023-02-11T02:50:29;100705.31;;;2.23;100.00
7407;BME280;3745;56.964;24.128;2023-02-11T02:53:16;100692.97;;;2.26;100.00
7407;BME280;3745;56.964;24.128;2023-02-11T02:56:24;100695.75;;;2.32;100.00
7407;BME280;3745;56.964;24.128;2023-02-11T03:01:53;100656.56;;;2.31;100.00
7407;BME280;3745;56.964;24.128;2023-02-11T03:07:23;100641.22;;;2.41;100.00
7407;BME280;3745;56.964;24.128;2023-02-11T03:10:12;100612.44;;;2.30;100.00
7407;BME280;3745;56.964;24.128;2023-02-11T03:12:41;100566.47;;;2.06;100.00
7407;BME280;3745;56.964;24.128;2023-02-11T03:15:09;100619.78;;;2.46;100.00
7407;BME280;3745;56.964;24.128;2023-02-11T03:17:40;100589.03;;;2.28;100.00
7407;BME280;3745;56.964;24.128;2023-02-11T03:20:09;100592.88;;;2.39;100.00
7407;BME280;3745;56.964;24.128;2023-02-11T03:23:06;100538.84;;;2.22;100.00
7407;BME280;3745;56.964;24.128;2023-02-11T03:25:37;100585.19;;;2.55;100.00
7407;BME280;3745;56.964;24.128;2023-02-11T03:31:02;100574.97;;;2.49;100.00
7407;BME280;3745;56.964;24.128;2023-02-11T03:33:48;100544.91;;;2.27;100.00
7407;BME280;3745;56.964;24.128;2023-02-11T03:36:22;100564.72;;;2.43;100.00
7407;BME280;3745;56.964;24.128;2023-02-11T03:38:53;100566.31;;;2.41;100.00
7407;BME280;3745;56.964;24.128;2023-02-11T03:41:22;100533.88;;;2.22;100.00
7407;BME280;3745;56.964;24.128;2023-02-11T03:43:52;100541.69;;;2.30;100.00
7407;BME280;3745;56.964;24.128;2023-02-11T03:46:24;100513.63;;;2.16;100.00
7407;BME280;3745;56.964;24.128;2023-02-11T03:48:55;100484.78;;;2.02;100.00
7407;BME280;3745;56.964;24.128;2023-02-11T03:51:23;100532.69;;;2.33;100.00
7407;BME280;3745;56.964;24.128;2023-02-11T03:53:54;100544.63;;;2.40;100.00
7407;BME280;3745;56.964;24.128;2023-02-11T03:56:25;100511.22;;;2.17;100.00
7407;BME280;3745;56.964;24.128;2023-02-11T03:58:51;100469.06;;;2.04;100.00
7407;BME280;3745;56.964;24.128;2023-02-11T04:01:17;100478.69;;;2.16;100.00
7407;BME280;3745;56.964;24.128;2023-02-11T04:03:43;100497.75;;;2.33;100.00
7407;BME280;3745;56.964;24.128;2023-02-11T04:06:08;100441.88;;;1.91;100.00
7407;BME280;3745;56.964;24.128;2023-02-11T04:08:34;100462.88;;;2.15;100.00
7407;BME280;3745;56.964;24.128;2023-02-11T04:10:59;100483.38;;;2.28;100.00
7407;BME280;3745;56.964;24.128;2023-02-11T04:13:25;100431.34;;;1.97;100.00
7407;BME280;3745;56.964;24.128;2023-02-11T04:15:51;100412.69;;;1.89;100.00
7407;BME280;3745;56.964;24.128;2023-02-11T04:18:17;100458.84;;;2.19;100.00
7407;BME280;3745;56.964;24.128;2023-02-11T04:20:42;100460.56;;;2.20;100.00
7407;BME280;3745;56.964;24.128;2023-02-11T04:23:08;100399.44;;;1.90;100.00
7407;BME280;3745;56.964;24.128;2023-02-11T04:25:34;100439.75;;;2.19;100.00
7407;BME280;3745;56.964;24.128;2023-02-11T04:28:00;100363.63;;;1.69;100.00
7407;BME280;3745;56.964;24.128;2023-02-11T04:30:26;100364.41;;;1.68;100.00
7407;BME280;3745;56.964;24.128;2023-02-11T04:32:52;100437.97;;;2.17;100.00
7407;BME280;3745;56.964;24.128;2023-02-11T04:35:19;100445.59;;;2.20;100.00
7407;BME280;3745;56.964;24.128;2023-02-11T04:37:45;100428.91;;;2.19;100.00
7407;BME280;3745;56.964;24.128;2023-02-11T04:40:11;100418.94;;;2.19;100.00
7407;BME280;3745;56.964;24.128;2023-02-11T04:42:36;100359.78;;;1.96;100.00
7407;BME280;3745;56.964;24.128;2023-02-11T04:45:02;100368.66;;;2.10;100.00
7407;BME280;3745;56.964;24.128;2023-02-11T04:47:28;100398.19;;;2.20;100.00
7407;BME280;3745;56.964;24.128;2023-02-11T04:49:53;100346.38;;;1.94;100.00
7407;BME280;3745;56.964;24.128;2023-02-11T04:52:19;100368.66;;;2.10;100.00
7407;BME280;3745;56.964;24.128;2023-02-11T04:54:45;100393.22;;;2.22;100.00
7407;BME280;3745;56.964;24.128;2023-02-11T04:57:10;100358.53;;;2.07;100.00
7407;BME280;3745;56.964;24.128;2023-02-11T04:59:36;100374.38;;;2.28;100.00
7407;BME280;3745;56.964;24.128;2023-02-11T05:02:01;100362.81;;;2.30;100.00
7407;BME280;3745;56.964;24.128;2023-02-11T05:04:28;100381.06;;;2.29;100.00
7407;BME280;3745;56.964;24.128;2023-02-11T05:06:54;100365.44;;;2.33;100.00
7407;BME280;3745;56.964;24.128;2023-02-11T05:09:19;100351.34;;;2.35;100.00
7407;BME280;3745;56.964;24.128;2023-02-11T05:11:45;100361.56;;;2.41;100.00
7407;BME280;3745;56.964;24.128;2023-02-11T05:14:10;100336.38;;;2.35;100.00
7407;BME280;3745;56.964;24.128;2023-02-11T05:16:36;100313.47;;;2.25;100.00
7407;BME280;3745;56.964;24.128;2023-02-11T05:19:02;100288.16;;;2.15;100.00
7407;BME280;3745;56.964;24.128;2023-02-11T05:21:28;100331.50;;;2.38;100.00
7407;BME280;3745;56.964;24.128;2023-02-11T05:23:54;100321.84;;;2.47;100.00
7407;BME280;3745;56.964;24.128;2023-02-11T05:26:19;100312.75;;;2.49;100.00
7407;BME280;3745;56.964;24.128;2023-02-11T05:28:45;100307.00;;;2.50;100.00
7407;BME280;3745;56.964;24.128;2023-02-11T05:31:11;100311.25;;;2.53;100.00
7407;BME280;3745;56.964;24.128;2023-02-11T05:33:39;100292.97;;;2.54;100.00
7407;BME280;3745;56.964;24.128;2023-02-11T05:36:08;100295.41;;;2.52;100.00
7407;BME280;3745;56.964;24.128;2023-02-11T05:38:35;100276.13;;;2.48;100.00
7407;BME280;3745;56.964;24.128;2023-02-11T05:41:01;100260.09;;;2.43;100.00
7407;BME280;3745;56.964;24.128;2023-02-11T05:43:27;100252.16;;;2.53;100.00
7407;BME280;3745;56.964;24.128;2023-02-11T05:45:52;100257.16;;;2.53;100.00
7407;BME280;3745;56.964;24.128;2023-02-11T05:48:18;100266.69;;;2.63;100.00
7407;BME280;3745;56.964;24.128;2023-02-11T05:50:44;100249.09;;;2.60;100.00
7407;BME280;3745;56.964;24.128;2023-02-11T05:53:10;100261.13;;;2.70;100.00
7407;BME280;3745;56.964;24.128;2023-02-11T05:55:37;100252.72;;;2.68;100.00
7407;BME280;3745;56.964;24.128;2023-02-11T05:58:04;100258.03;;;2.78;100.00
7407;BME280;3745;56.964;24.128;2023-02-11T06:00:30;100256.47;;;2.80;100.00
7407;BME280;3745;56.964;24.128;2023-02-11T06:02:56;100222.41;;;2.59;100.00
7407;BME280;3745;56.964;24.128;2023-02-11T06:05:21;100239.97;;;2.85;100.00
7407;BME280;3745;56.964;24.128;2023-02-11T06:07:47;100251.91;;;2.92;100.00
7407;BME280;3745;56.964;24.128;2023-02-11T06:10:12;100207.97;;;2.74;100.00
7407;BME280;3745;56.964;24.128;2023-02-11T06:12:38;100241.03;;;2.91;100.00
7407;BME280;3745;56.964;24.128;2023-02-11T06:15:04;100233.59;;;2.93;100.00
7407;BME280;3745;56.964;24.128;2023-02-11T06:17:30;100172.56;;;2.62;100.00
7407;BME280;3745;56.964;24.128;2023-02-11T06:19:59;100192.97;;;2.74;100.00
7407;BME280;3745;56.964;24.128;2023-02-11T06:22:25;100233.91;;;3.02;100.00
7407;BME280;3745;56.964;24.128;2023-02-11T06:24:51;100215.50;;;3.00;100.00
7407;BME280;3745;56.964;24.128;2023-02-11T06:27:17;100224.00;;;3.05;100.00
7407;BME280;3745;56.964;24.128;2023-02-11T06:29:43;100232.44;;;3.07;100.00
7407;BME280;3745;56.964;24.128;2023-02-11T06:32:09;100215.81;;;3.09;100.00
7407;BME280;3745;56.964;24.128;2023-02-11T06:34:35;100201.50;;;3.05;100.00
7407;BME280;3745;56.964;24.128;2023-02-11T06:37:01;100206.03;;;3.15;100.00
7407;BME280;3745;56.964;24.128;2023-02-11T06:39:27;100201.97;;;3.18;100.00
7407;BME280;3745;56.964;24.128;2023-02-11T06:41:52;100211.34;;;3.24;100.00
7407;BME280;3745;56.964;24.128;2023-02-11T06:44:18;100172.44;;;3.07;100.00
7407;BME280;3745;56.964;24.128;2023-02-11T06:46:43;100129.75;;;2.76;100.00
7407;BME280;3745;56.964;24.128;2023-02-11T06:49:09;100211.19;;;3.19;100.00
7407;BME280;3745;56.964;24.128;2023-02-11T06:51:35;100172.34;;;3.04;100.00
7407;BME280;3745;56.964;24.128;2023-02-11T06:54:01;100174.22;;;3.11;100.00
7407;BME280;3745;56.964;24.128;2023-02-11T06:56:26;100165.19;;;3.14;100.00
7407;BME280;3745;56.964;24.128;2023-02-11T06:58:53;100176.44;;;3.27;100.00
7407;BME280;3745;56.964;24.128;2023-02-11T07:01:23;100184.94;;;3.32;100.00
7407;BME280;3745;56.964;24.128;2023-02-11T07:03:49;100160.19;;;3.14;100.00
7407;BME280;3745;56.964;24.128;2023-02-11T07:06:21;100130.75;;;3.06;100.00
7407;BME280;3745;56.964;24.128;2023-02-11T07:08:48;100148.03;;;3.25;100.00
7407;BME280;3745;56.964;24.128;2023-02-11T07:11:19;100187.00;;;3.45;100.00
7407;BME280;3745;56.964;24.128;2023-02-11T07:13:46;100129.44;;;3.17;100.00
7407;BME280;3745;56.964;24.128;2023-02-11T07:16:14;100130.38;;;3.20;100.00
7407;BME280;3745;56.964;24.128;2023-02-11T07:18:40;100142.38;;;3.31;100.00
7407;BME280;3745;56.964;24.128;2023-02-11T07:21:08;100151.81;;;3.39;100.00
7407;BME280;3745;56.964;24.128;2023-02-11T07:23:34;100190.72;;;3.56;100.00
7407;BME280;3745;56.964;24.128;2023-02-11T07:26:05;100082.38;;;3.04;100.00
7407;BME280;3745;56.964;24.128;2023-02-11T07:28:31;100188.44;;;3.64;100.00
7407;BME280;3745;56.964;24.128;2023-02-11T07:30:58;100045.41;;;2.94;100.00
7407;BME280;3745;56.964;24.128;2023-02-11T07:33:24;100151.41;;;3.52;100.00
7407;BME280;3745;56.964;24.128;2023-02-11T07:35:49;100174.63;;;3.75;100.00
7407;BME280;3745;56.964;24.128;2023-02-11T07:38:15;100177.94;;;3.75;100.00
7407;BME280;3745;56.964;24.128;2023-02-11T07:40:40;100118.50;;;3.40;100.00
7407;BME280;3745;56.964;24.128;2023-02-11T07:43:06;100181.66;;;3.87;100.00
7407;BME280;3745;56.964;24.128;2023-02-11T07:45:31;100173.03;;;3.78;100.00
7407;BME280;3745;56.964;24.128;2023-02-11T07:47:57;100169.84;;;3.82;100.00
7407;BME280;3745;56.964;24.128;2023-02-11T07:50:22;100191.13;;;3.97;100.00
7407;BME280;3745;56.964;24.128;2023-02-11T07:52:48;100180.31;;;3.98;100.00
7407;BME280;3745;56.964;24.128;2023-02-11T07:55:13;100107.44;;;3.60;100.00
7407;BME280;3745;56.964;24.128;2023-02-11T07:57:39;100173.53;;;3.94;100.00
7407;BME280;3745;56.964;24.128;2023-02-11T08:00:05;100155.09;;;3.92;100.00
7407;BME280;3745;56.964;24.128;2023-02-11T08:02:31;100189.00;;;4.09;100.00
7407;BME280;3745;56.964;24.128;2023-02-11T08:04:57;100184.25;;;4.18;100.00
7407;BME280;3745;56.964;24.128;2023-02-11T08:07:22;100185.94;;;4.19;100.00
7407;BME280;3745;56.964;24.128;2023-02-11T08:09:49;100184.50;;;4.27;100.00
7407;BME280;3745;56.964;24.128;2023-02-11T08:12:14;100186.34;;;4.34;100.00
7407;BME280;3745;56.964;24.128;2023-02-11T08:14:40;100150.88;;;4.19;100.00
7407;BME280;3745;56.964;24.128;2023-02-11T08:17:05;100159.38;;;4.24;100.00
7407;BME280;3745;56.964;24.128;2023-02-11T08:19:31;100142.66;;;4.23;100.00
7407;BME280;3745;56.964;24.128;2023-02-11T08:21:57;100185.19;;;4.51;100.00
7407;BME280;3745;56.964;24.128;2023-02-11T08:24:24;100148.69;;;4.29;100.00
7407;BME280;3745;56.964;24.128;2023-02-11T08:26:50;100187.16;;;4.61;100.00
7407;BME280;3745;56.964;24.128;2023-02-11T08:29:16;100190.38;;;4.57;100.00
7407;BME280;3745;56.964;24.128;2023-02-11T08:31:44;100193.16;;;4.68;100.00
7407;BME280;3745;56.964;24.128;2023-02-11T08:34:11;100197.41;;;4.70;100.00
7407;BME280;3745;56.964;24.128;2023-02-11T08:36:40;100187.56;;;4.76;100.00
7407;BME280;3745;56.964;24.128;2023-02-11T08:39:09;100185.94;;;4.78;100.00
7407;BME280;3745;56.964;24.128;2023-02-11T08:41:36;100167.19;;;4.64;100.00
7407;BME280;3745;56.964;24.128;2023-02-11T08:44:02;100182.69;;;4.82;100.00
7407;BME280;3745;56.964;24.128;2023-02-11T08:46:28;100131.66;;;4.49;100.00
7407;BME280;3745;56.964;24.128;2023-02-11T08:48:54;100164.00;;;4.71;100.00
7407;BME280;3745;56.964;24.128;2023-02-11T08:51:22;100197.13;;;4.91;100.00
7407;BME280;3745;56.964;24.128;2023-02-11T08:53:49;100194.66;;;4.92;100.00
7407;BME280;3745;56.964;24.128;2023-02-11T08:56:16;100174.19;;;4.77;100.00
7407;BME280;3745;56.964;24.128;2023-02-11T08:58:42;100201.28;;;4.90;100.00
7407;BME280;3745;56.964;24.128;2023-02-11T09:01:13;100170.72;;;4.72;100.00
7407;BME280;3745;56.964;24.128;2023-02-11T09:03:39;100201.28;;;4.90;100.00
7407;BME280;3745;56.964;24.128;2023-02-11T09:06:06;100205.53;;;4.93;100.00
7407;BME280;3745;56.964;24.128;2023-02-11T09:08:37;100204.81;;;4.97;100.00
7407;BME280;3745;56.964;24.128;2023-02-11T09:11:04;100171.59;;;4.74;100.00
7407;BME280;3745;56.964;24.128;2023-02-11T09:13:31;100191.97;;;4.85;100.00
7407;BME280;3745;56.964;24.128;2023-02-11T09:15:58;100226.44;;;4.93;100.00
7407;BME280;3745;56.964;24.128;2023-02-11T09:18:24;100092.41;;;4.17;100.00
7407;BME280;3745;56.964;24.128;2023-02-11T09:20:50;100219.06;;;4.98;100.00
7407;BME280;3745;56.964;24.128;2023-02-11T09:23:15;100214.53;;;4.86;100.00
7407;BME280;3745;56.964;24.128;2023-02-11T09:25:41;100214.78;;;4.96;100.00
7407;BME280;3745;56.964;24.128;2023-02-11T09:28:07;100221.59;;;5.00;100.00
7407;BME280;3745;56.964;24.128;2023-02-11T09:30:35;100214.06;;;5.00;100.00
7407;BME280;3745;56.964;24.128;2023-02-11T09:33:01;100237.75;;;5.11;100.00
7407;BME280;3745;56.964;24.128;2023-02-11T09:35:27;100240.31;;;5.14;100.00
7407;BME280;3745;56.964;24.128;2023-02-11T09:37:52;100241.25;;;5.16;100.00
7407;BME280;3745;56.964;24.128;2023-02-11T09:40:18;100168.38;;;4.78;100.00
7407;BME280;3745;56.964;24.128;2023-02-11T09:42:52;100219.44;;;5.13;100.00
7407;BME280;3745;56.964;24.128;2023-02-11T09:45:25;100230.72;;;5.29;100.00
7407;BME280;3745;56.964;24.128;2023-02-11T09:47:55;100182.31;;;5.00;100.00
7407;BME280;3745;56.964;24.128;2023-02-11T09:50:32;100200.81;;;5.05;100.00
7407;BME280;3745;56.964;24.128;2023-02-11T09:53:02;100242.34;;;5.27;100.00
7407;BME280;3745;56.964;24.128;2023-02-11T09:55:38;100269.78;;;5.21;100.00
7407;BME280;3745;56.964;24.128;2023-02-11T09:58:13;100285.31;;;5.08;100.00
7407;BME280;3745;56.964;24.128;2023-02-11T10:00:44;100280.13;;;5.02;100.00
7407;BME280;3745;56.964;24.128;2023-02-11T10:22:54;100320.75;;;4.60;100.00
7407;BME280;3745;56.964;24.128;2023-02-11T10:25:39;100254.25;;;4.15;100.00
7407;BME280;3745;56.964;24.128;2023-02-11T10:28:15;100339.59;;;4.49;100.00
7407;BME280;3745;56.964;24.128;2023-02-11T10:31:00;100275.69;;;4.07;100.00
7407;BME280;3745;56.964;24.128;2023-02-11T10:33:30;100356.38;;;4.25;100.00
7407;BME280;3745;56.964;24.128;2023-02-11T10:35:58;100349.31;;;4.12;100.00
7407;BME280;3745;56.964;24.128;2023-02-11T10:38:25;100352.22;;;3.99;100.00
7407;BME280;3745;56.964;24.128;2023-02-11T10:40:52;100370.63;;;4.01;100.00
7407;BME280;3745;56.964;24.128;2023-02-11T10:43:21;100374.78;;;4.00;100.00
7407;BME280;3745;56.964;24.128;2023-02-11T10:45:53;100338.72;;;3.68;100.00
7407;BME280;3745;56.964;24.128;2023-02-11T10:48:42;100372.72;;;3.89;100.00
7407;BME280;3745;56.964;24.128;2023-02-11T10:53:37;100393.69;;;3.91;100.00
7407;BME280;3745;56.964;24.128;2023-02-11T10:56:03;100404.75;;;3.73;100.00
7407;BME280;3745;56.964;24.128;2023-02-11T11:01:06;100372.41;;;3.54;100.00
7407;BME280;3745;56.964;24.128;2023-02-11T11:03:38;100413.38;;;3.58;100.00
7407;BME280;3745;56.964;24.128;2023-02-11T11:06:10;100371.53;;;3.30;100.00
7407;BME280;3745;56.964;24.128;2023-02-11T11:08:45;100239.56;;;2.28;100.00
7407;BME280;3745;56.964;24.128;2023-02-11T11:11:27;100413.38;;;3.34;100.00
7407;BME280;3745;56.964;24.128;2023-02-11T11:13:58;100411.44;;;3.27;100.00
7407;BME280;3745;56.964;24.128;2023-02-11T11:16:31;100439.66;;;3.23;100.00
7407;BME280;3745;56.964;24.128;2023-02-11T11:21:40;100436.78;;;3.36;100.00
7407;BME280;3745;56.964;24.128;2023-02-11T11:26:42;100472.88;;;3.43;100.00
7407;BME280;3745;56.964;24.128;2023-02-11T11:29:16;100487.00;;;3.42;100.00
7407;BME280;3745;56.964;24.128;2023-02-11T11:31:56;100500.44;;;3.44;100.00
7407;BME280;3745;56.964;24.128;2023-02-11T11:34:43;100220.69;;;1.90;100.00
7407;BME280;3745;56.964;24.128;2023-02-11T11:37:19;100506.50;;;3.51;100.00
7407;BME280;3745;56.964;24.128;2023-02-11T11:42:41;100257.91;;;1.86;100.00
7407;BME280;3745;56.964;24.128;2023-02-11T11:45:24;100510.13;;;3.35;100.00
7407;BME280;3745;56.964;24.128;2023-02-11T11:50:39;100563.06;;;3.25;100.00
7407;BME280;3745;56.964;24.128;2023-02-11T11:55:47;100544.28;;;3.14;100.00
7407;BME280;3745;56.964;24.128;2023-02-11T11:58:19;100524.91;;;2.88;100.00
7407;BME280;3745;56.964;24.128;2023-02-11T12:00:56;100552.09;;;3.01;100.00
7407;BME280;3745;56.964;24.128;2023-02-11T12:14:39;100599.50;;;2.79;100.00
7407;BME280;3745;56.964;24.128;2023-02-11T12:29:02;100620.44;;;2.61;100.00
7407;BME280;3745;56.964;24.128;2023-02-11T12:40:01;100686.16;;;2.41;100.00
7407;BME280;3745;56.964;24.128;2023-02-11T12:54:40;100707.56;;;2.36;100.00
7407;BME280;3745;56.964;24.128;2023-02-11T12:57:23;100739.09;;;2.34;100.00
7407;BME280;3745;56.964;24.128;2023-02-11T13:02:49;100754.47;;;2.43;100.00
7407;BME280;3745;56.964;24.128;2023-02-11T13:05:56;100767.63;;;2.39;100.00
7407;BME280;3745;56.964;24.128;2023-02-11T13:08:35;100756.81;;;2.21;100.00
7407;BME280;3745;56.964;24.128;2023-02-11T13:11:06;100748.69;;;2.07;100.00
7407;BME280;3745;56.964;24.128;2023-02-11T13:13:55;100809.56;;;2.29;100.00
7407;BME280;3745;56.964;24.128;2023-02-11T13:16:39;100803.59;;;2.25;100.00
7407;BME280;3745;56.964;24.128;2023-02-11T13:24:47;100791.06;;;2.06;100.00
7407;BME280;3745;56.964;24.128;2023-02-11T13:30:11;100855.53;;;2.32;100.00
7407;BME280;3745;56.964;24.128;2023-02-11T13:37:57;100869.22;;;2.40;100.00
7407;BME280;3745;56.964;24.128;2023-02-11T13:45:39;100875.50;;;2.32;100.00
7407;BME280;3745;56.964;24.128;2023-02-11T13:48:23;100908.19;;;2.37;100.00
7407;BME280;3745;56.964;24.128;2023-02-11T13:50:56;100866.53;;;2.02;100.00
7407;BME280;3745;56.964;24.128;2023-02-11T13:53:23;100884.47;;;2.11;100.00
7407;BME280;3745;56.964;24.128;2023-02-11T13:55:52;100930.41;;;2.32;100.00
7407;BME280;3745;56.964;24.128;2023-02-11T13:58:33;100937.13;;;2.33;100.00
7407;BME280;3745;56.964;24.128;2023-02-11T14:01:05;100954.47;;;2.30;100.00
7407;BME280;3745;56.964;24.128;2023-02-11T14:03:33;100898.53;;;1.93;100.00
7407;BME280;3745;56.964;24.128;2023-02-11T14:06:27;100970.34;;;1.98;100.00
7407;BME280;3745;56.964;24.128;2023-02-11T14:09:37;100923.03;;;1.51;100.00
7407;BME280;3745;56.964;24.128;2023-02-11T14:12:32;100946.75;;;1.59;100.00
7407;BME280;3745;56.964;24.128;2023-02-11T14:15:01;100932.84;;;1.32;100.00
7407;BME280;3745;56.964;24.128;2023-02-11T14:17:41;101022.03;;;1.69;100.00
7407;BME280;3745;56.964;24.128;2023-02-11T14:20:31;101043.69;;;1.70;100.00
7407;BME280;3745;56.964;24.128;2023-02-11T14:22:57;101047.69;;;1.51;100.00
7407;BME280;3745;56.964;24.128;2023-02-11T14:25:24;101068.94;;;1.59;100.00
7407;BME280;3745;56.964;24.128;2023-02-11T14:28:05;101093.41;;;1.67;100.00
7407;BME280;3745;56.964;24.128;2023-02-11T14:30:49;101112.88;;;1.57;100.00
7407;BME280;3745;56.964;24.128;2023-02-11T14:33:37;101059.97;;;1.32;100.00
7407;BME280;3745;56.964;24.128;2023-02-11T14:39:08;101150.50;;;1.77;100.00
7407;BME280;3745;56.964;24.128;2023-02-11T14:41:40;101144.31;;;1.70;100.00
7407;BME280;3745;56.964;24.128;2023-02-11T14:44:14;101180.75;;;1.83;100.00
7407;BME280;3745;56.964;24.128;2023-02-11T14:46:45;101198.81;;;1.79;100.00
7407;BME280;3745;56.964;24.128;2023-02-11T14:49:29;101186.03;;;1.73;100.00
7407;BME280;3745;56.964;24.128;2023-02-11T14:52:05;101197.47;;;1.84;100.00
7407;BME280;3745;56.964;24.128;2023-02-11T14:54:32;101210.09;;;1.87;100.00
7407;BME280;3745;56.964;24.128;2023-02-11T14:57:17;101124.78;;;1.32;100.00
7407;BME280;3745;56.964;24.128;2023-02-11T15:00:00;101226.78;;;1.88;100.00
7407;BME280;3745;56.964;24.128;2023-02-11T15:02:34;101236.31;;;1.95;100.00
7407;BME280;3745;56.964;24.128;2023-02-11T15:05:32;101242.44;;;2.00;100.00
7407;BME280;3745;56.964;24.128;2023-02-11T15:08:01;101259.75;;;1.97;100.00
7407;BME280;3745;56.964;24.128;2023-02-11T15:10:31;101282.63;;;1.90;100.00
7407;BME280;3745;56.964;24.128;2023-02-11T15:13:01;101281.25;;;1.95;100.00
7407;BME280;3745;56.964;24.128;2023-02-11T15:15:28;101295.03;;;2.03;100.00
7407;BME280;3745;56.964;24.128;2023-02-11T15:17:55;101297.94;;;1.96;100.00
7407;BME280;3745;56.964;24.128;2023-02-11T15:20:28;101321.50;;;2.01;100.00
7407;BME280;3745;56.964;24.128;2023-02-11T15:22:59;101347.84;;;1.96;100.00
7407;BME280;3745;56.964;24.128;2023-02-11T15:25:26;101344.75;;;2.00;100.00
7407;BME280;3745;56.964;24.128;2023-02-11T15:27:54;101346.53;;;1.88;100.00